sensor_id;sensor_type;location;lat;lon;timestamp;temperature;humidity
39621;DHT22;25309;48.686;9.170;2022-07-29T00:02:26;19.30;99.90
39621;DHT22;25309;48.686;9.170;2022-07-29T00:04:53;19.30;99.90
39621;DHT22;25309;48.686;9.170;2022-07-29T00:07:20;19.30;99.90
39621;DHT22;25309;48.686;9.170;2022-07-29T00:09:47;19.30;99.90
39621;DHT22;25309;48.686;9.170;2022-07-29T00:12:17;19.30;99.90
39621;DHT22;25309;48.686;9.170;2022-07-29T00:14:55;19.30;99.90
39621;DHT22;25309;48.686;9.170;2022-07-29T00:17:22;19.30;99.90
39621;DHT22;25309;48.686;9.170;2022-07-29T00:19:51;19.30;99.90
39621;DHT22;25309;48.686;9.170;2022-07-29T00:22:18;19.30;99.90
39621;DHT22;25309;48.686;9.170;2022-07-29T00:24:47;19.40;99.90
39621;DHT22;25309;48.686;9.170;2022-07-29T00:27:14;19.30;99.90
39621;DHT22;25309;48.686;9.170;2022-07-29T00:29:41;19.30;99.90
39621;DHT22;25309;48.686;9.170;2022-07-29T00:32:08;19.30;99.90
39621;DHT22;25309;48.686;9.170;2022-07-29T00:34:35;19.30;99.90
39621;DHT22;25309;48.686;9.170;2022-07-29T00:37:21;19.30;99.90
39621;DHT22;25309;48.686;9.170;2022-07-29T00:39:48;19.30;99.90
39621;DHT22;25309;48.686;9.170;2022-07-29T00:42:16;19.20;99.90
39621;DHT22;25309;48.686;9.170;2022-07-29T00:44:43;19.20;99.90
39621;DHT22;25309;48.686;9.170;2022-07-29T00:47:11;19.20;99.90
39621;DHT22;25309;48.686;9.170;2022-07-29T00:49:39;19.10;99.90
39621;DHT22;25309;48.686;9.170;2022-07-29T00:52:08;19.00;99.90
39621;DHT22;25309;48.686;9.170;2022-07-29T00:54:38;19.10;99.90
39621;DHT22;25309;48.686;9.170;2022-07-29T00:57:11;19.10;99.90
39621;DHT22;25309;48.686;9.170;2022-07-29T00:59:39;19.10;99.90
39621;DHT22;25309;48.686;9.170;2022-07-29T01:02:06;19.10;99.90
39621;DHT22;25309;48.686;9.170;2022-07-29T01:04:33;19.10;99.90
39621;DHT22;25309;48.686;9.170;2022-07-29T01:07:01;19.10;99.90
39621;DHT22;25309;48.686;9.170;2022-07-29T01:09:28;19.10;99.90
39621;DHT22;25309;48.686;9.170;2022-07-29T01:12:16;19.00;99.90
39621;DHT22;25309;48.686;9.170;2022-07-29T01:14:45;19.00;99.90
39621;DHT22;25309;48.686;9.170;2022-07-29T01:17:14;19.00;99.90
39621;DHT22;25309;48.686;9.170;2022-07-29T01:19:53;18.90;99.90
39621;DHT22;25309;48.686;9.170;2022-07-29T01:25:44;18.90;99.90
39621;DHT22;25309;48.686;9.170;2022-07-29T01:28:40;18.90;99.90
39621;DHT22;25309;48.686;9.170;2022-07-29T01:31:10;18.80;99.90
39621;DHT22;25309;48.686;9.170;2022-07-29T01:33:57;18.80;99.90
39621;DHT22;25309;48.686;9.170;2022-07-29T01:36:35;18.80;99.90
39621;DHT22;25309;48.686;9.170;2022-07-29T01:39:08;18.80;99.90
39621;DHT22;25309;48.686;9.170;2022-07-29T01:41:40;18.80;99.90
39621;DHT22;25309;48.686;9.170;2022-07-29T01:44:13;18.80;99.90
39621;DHT22;25309;48.686;9.170;2022-07-29T01:46:49;18.80;99.90
39621;DHT22;25309;48.686;9.170;2022-07-29T01:49:22;18.80;99.90
39621;DHT22;25309;48.686;9.170;2022-07-29T01:51:54;18.80;99.90
39621;DHT22;25309;48.686;9.170;2022-07-29T01:54:26;18.70;99.90
39621;DHT22;25309;48.686;9.170;2022-07-29T01:56:56;18.70;99.90
39621;DHT22;25309;48.686;9.170;2022-07-29T01:59:25;18.70;99.90
39621;DHT22;25309;48.686;9.170;2022-07-29T02:01:54;18.70;99.90
39621;DHT22;25309;48.686;9.170;2022-07-29T02:04:21;18.70;99.90
39621;DHT22;25309;48.686;9.170;2022-07-29T02:06:58;18.70;99.90
39621;DHT22;25309;48.686;9.170;2022-07-29T02:09:28;18.70;99.90
39621;DHT22;25309;48.686;9.170;2022-07-29T02:11:56;18.70;99.90
39621;DHT22;25309;48.686;9.170;2022-07-29T02:14:28;18.70;99.90
39621;DHT22;25309;48.686;9.170;2022-07-29T02:16:58;18.70;99.90
39621;DHT22;25309;48.686;9.170;2022-07-29T02:19:27;18.70;99.90
39621;DHT22;25309;48.686;9.170;2022-07-29T02:21:57;18.70;99.90
39621;DHT22;25309;48.686;9.170;2022-07-29T02:24:25;18.60;99.90
39621;DHT22;25309;48.686;9.170;2022-07-29T02:26:55;18.60;99.90
39621;DHT22;25309;48.686;9.170;2022-07-29T02:29:26;18.70;99.90
39621;DHT22;25309;48.686;9.170;2022-07-29T02:31:54;18.70;99.90
39621;DHT22;25309;48.686;9.170;2022-07-29T02:34:22;18.60;99.90
39621;DHT22;25309;48.686;9.170;2022-07-29T02:36:50;18.60;99.90
39621;DHT22;25309;48.686;9.170;2022-07-29T02:39:18;18.50;99.90
39621;DHT22;25309;48.686;9.170;2022-07-29T02:41:47;18.50;99.90
39621;DHT22;25309;48.686;9.170;2022-07-29T02:44:18;18.50;99.90
39621;DHT22;25309;48.686;9.170;2022-07-29T02:46:49;18.50;99.90
39621;DHT22;25309;48.686;9.170;2022-07-29T02:49:27;18.50;99.90
39621;DHT22;25309;48.686;9.170;2022-07-29T02:51:58;18.40;99.90
39621;DHT22;25309;48.686;9.170;2022-07-29T02:54:31;18.50;99.90
39621;DHT22;25309;48.686;9.170;2022-07-29T02:57:05;18.40;99.90
39621;DHT22;25309;48.686;9.170;2022-07-29T02:59:35;18.40;99.90
39621;DHT22;25309;48.686;9.170;2022-07-29T03:02:04;18.40;99.90
39621;DHT22;25309;48.686;9.170;2022-07-29T03:04:34;18.40;99.90
39621;DHT22;25309;48.686;9.170;2022-07-29T03:07:02;18.40;99.90
39621;DHT22;25309;48.686;9.170;2022-07-29T03:09:30;18.40;99.90
39621;DHT22;25309;48.686;9.170;2022-07-29T03:11:58;18.40;99.90
39621;DHT22;25309;48.686;9.170;2022-07-29T03:14:27;18.50;99.90
39621;DHT22;25309;48.686;9.170;2022-07-29T03:16:54;18.50;99.90
39621;DHT22;25309;48.686;9.170;2022-07-29T03:19:23;18.50;99.90
39621;DHT22;25309;48.686;9.170;2022-07-29T03:21:50;18.50;99.90
39621;DHT22;25309;48.686;9.170;2022-07-29T03:24:28;18.50;99.90
39621;DHT22;25309;48.686;9.170;2022-07-29T03:26:56;18.50;99.90
39621;DHT22;25309;48.686;9.170;2022-07-29T03:29:24;18.50;99.90
39621;DHT22;25309;48.686;9.170;2022-07-29T03:32:00;18.40;99.90
39621;DHT22;25309;48.686;9.170;2022-07-29T03:34:30;18.40;99.90
39621;DHT22;25309;48.686;9.170;2022-07-29T03:36:57;18.40;99.90
39621;DHT22;25309;48.686;9.170;2022-07-29T03:39:27;18.40;99.90
39621;DHT22;25309;48.686;9.170;2022-07-29T03:41:56;18.40;99.90
39621;DHT22;25309;48.686;9.170;2022-07-29T03:44:26;18.40;99.90
39621;DHT22;25309;48.686;9.170;2022-07-29T03:46:55;18.40;99.90
39621;DHT22;25309;48.686;9.170;2022-07-29T03:49:26;18.40;99.90
39621;DHT22;25309;48.686;9.170;2022-07-29T03:51:54;18.40;99.90
39621;DHT22;25309;48.686;9.170;2022-07-29T03:54:22;18.40;99.90
39621;DHT22;25309;48.686;9.170;2022-07-29T03:56:50;18.40;99.90
39621;DHT22;25309;48.686;9.170;2022-07-29T03:59:20;18.40;99.90
39621;DHT22;25309;48.686;9.170;2022-07-29T04:01:48;18.40;99.90
39621;DHT22;25309;48.686;9.170;2022-07-29T04:04:15;18.40;99.90
39621;DHT22;25309;48.686;9.170;2022-07-29T04:06:45;18.40;99.90
39621;DHT22;25309;48.686;9.170;2022-07-29T04:09:15;18.40;99.90
39621;DHT22;25309;48.686;9.170;2022-07-29T04:11:42;18.40;99.90
39621;DHT22;25309;48.686;9.170;2022-07-29T04:14:28;18.40;99.90
39621;DHT22;25309;48.686;9.170;2022-07-29T04:16:55;18.40;99.90
39621;DHT22;25309;48.686;9.170;2022-07-29T04:19:22;18.40;99.90
39621;DHT22;25309;48.686;9.170;2022-07-29T04:21:49;18.40;99.90
39621;DHT22;25309;48.686;9.170;2022-07-29T04:24:17;18.40;99.90
39621;DHT22;25309;48.686;9.170;2022-07-29T04:26:45;18.40;99.90
39621;DHT22;25309;48.686;9.170;2022-07-29T04:29:12;18.30;99.90
39621;DHT22;25309;48.686;9.170;2022-07-29T04:31:41;18.30;99.90
39621;DHT22;25309;48.686;9.170;2022-07-29T04:34:08;18.20;99.90
39621;DHT22;25309;48.686;9.170;2022-07-29T04:36:36;18.20;99.90
39621;DHT22;25309;48.686;9.170;2022-07-29T04:39:03;18.20;99.90
39621;DHT22;25309;48.686;9.170;2022-07-29T04:41:31;18.20;99.90
39621;DHT22;25309;48.686;9.170;2022-07-29T04:44:00;18.20;99.90
39621;DHT22;25309;48.686;9.170;2022-07-29T04:46:33;18.20;99.90
39621;DHT22;25309;48.686;9.170;2022-07-29T04:48:59;18.20;99.90
39621;DHT22;25309;48.686;9.170;2022-07-29T04:51:27;18.20;99.90
39621;DHT22;25309;48.686;9.170;2022-07-29T04:53:54;18.20;99.90
39621;DHT22;25309;48.686;9.170;2022-07-29T04:56:21;18.20;99.90
39621;DHT22;25309;48.686;9.170;2022-07-29T04:58:49;18.20;99.90
39621;DHT22;25309;48.686;9.170;2022-07-29T05:01:16;18.30;99.90
39621;DHT22;25309;48.686;9.170;2022-07-29T05:03:43;18.30;99.90
39621;DHT22;25309;48.686;9.170;2022-07-29T05:06:10;18.30;99.90
39621;DHT22;25309;48.686;9.170;2022-07-29T05:08:37;18.40;99.90
39621;DHT22;25309;48.686;9.170;2022-07-29T05:11:07;18.50;99.90
39621;DHT22;25309;48.686;9.170;2022-07-29T05:13:38;18.60;99.90
39621;DHT22;25309;48.686;9.170;2022-07-29T05:16:13;18.60;99.90
39621;DHT22;25309;48.686;9.170;2022-07-29T05:18:40;18.80;99.90
39621;DHT22;25309;48.686;9.170;2022-07-29T05:21:07;18.80;99.90
39621;DHT22;25309;48.686;9.170;2022-07-29T05:23:34;18.80;99.90
39621;DHT22;25309;48.686;9.170;2022-07-29T05:26:01;18.80;99.90
39621;DHT22;25309;48.686;9.170;2022-07-29T05:28:28;18.90;99.90
39621;DHT22;25309;48.686;9.170;2022-07-29T05:30:55;18.90;99.90
39621;DHT22;25309;48.686;9.170;2022-07-29T05:33:24;19.00;99.90
39621;DHT22;25309;48.686;9.170;2022-07-29T05:36:03;19.10;99.90
39621;DHT22;25309;48.686;9.170;2022-07-29T05:38:32;19.10;99.90
39621;DHT22;25309;48.686;9.170;2022-07-29T05:40:59;19.20;99.90
39621;DHT22;25309;48.686;9.170;2022-07-29T05:43:27;19.20;99.90
39621;DHT22;25309;48.686;9.170;2022-07-29T05:45:54;19.30;99.90
39621;DHT22;25309;48.686;9.170;2022-07-29T05:48:21;19.40;99.90
39621;DHT22;25309;48.686;9.170;2022-07-29T05:50:49;19.40;99.90
39621;DHT22;25309;48.686;9.170;2022-07-29T05:53:16;19.40;99.90
39621;DHT22;25309;48.686;9.170;2022-07-29T05:55:46;19.50;99.90
39621;DHT22;25309;48.686;9.170;2022-07-29T05:58:13;19.50;99.90
39621;DHT22;25309;48.686;9.170;2022-07-29T06:00:40;19.50;99.90
39621;DHT22;25309;48.686;9.170;2022-07-29T06:03:07;19.50;99.90
39621;DHT22;25309;48.686;9.170;2022-07-29T06:05:34;19.50;99.90
39621;DHT22;25309;48.686;9.170;2022-07-29T06:08:03;19.60;99.90
39621;DHT22;25309;48.686;9.170;2022-07-29T06:10:32;19.60;99.90
39621;DHT22;25309;48.686;9.170;2022-07-29T06:12:59;19.60;99.90
39621;DHT22;25309;48.686;9.170;2022-07-29T06:15:26;19.60;99.90
39621;DHT22;25309;48.686;9.170;2022-07-29T06:17:53;19.70;99.90
39621;DHT22;25309;48.686;9.170;2022-07-29T06:20:25;19.80;99.90
39621;DHT22;25309;48.686;9.170;2022-07-29T06:22:53;19.80;99.90
39621;DHT22;25309;48.686;9.170;2022-07-29T06:25:21;19.90;99.90
39621;DHT22;25309;48.686;9.170;2022-07-29T06:27:48;19.90;99.90
39621;DHT22;25309;48.686;9.170;2022-07-29T06:30:15;19.90;99.90
39621;DHT22;25309;48.686;9.170;2022-07-29T06:32:42;20.00;99.90
39621;DHT22;25309;48.686;9.170;2022-07-29T06:35:09;20.00;99.90
39621;DHT22;25309;48.686;9.170;2022-07-29T06:37:56;20.10;99.90
39621;DHT22;25309;48.686;9.170;2022-07-29T06:40:26;20.20;99.90
39621;DHT22;25309;48.686;9.170;2022-07-29T06:43:13;20.20;99.90
39621;DHT22;25309;48.686;9.170;2022-07-29T06:45:40;20.30;99.90
39621;DHT22;25309;48.686;9.170;2022-07-29T06:48:08;20.30;99.90
39621;DHT22;25309;48.686;9.170;2022-07-29T06:50:35;20.40;99.90
39621;DHT22;25309;48.686;9.170;2022-07-29T06:53:03;20.40;99.90
39621;DHT22;25309;48.686;9.170;2022-07-29T06:55:31;20.50;99.90
39621;DHT22;25309;48.686;9.170;2022-07-29T06:57:58;20.50;99.90
39621;DHT22;25309;48.686;9.170;2022-07-29T07:00:25;20.60;99.90
39621;DHT22;25309;48.686;9.170;2022-07-29T07:02:52;20.60;99.90
39621;DHT22;25309;48.686;9.170;2022-07-29T07:05:19;20.60;99.90
39621;DHT22;25309;48.686;9.170;2022-07-29T07:07:46;20.60;99.90
39621;DHT22;25309;48.686;9.170;2022-07-29T07:10:13;20.60;99.90
39621;DHT22;25309;48.686;9.170;2022-07-29T07:12:41;20.70;99.90
39621;DHT22;25309;48.686;9.170;2022-07-29T07:15:09;20.70;99.90
39621;DHT22;25309;48.686;9.170;2022-07-29T07:17:36;20.80;99.90
39621;DHT22;25309;48.686;9.170;2022-07-29T07:20:05;20.90;99.90
39621;DHT22;25309;48.686;9.170;2022-07-29T07:22:32;21.00;99.90
39621;DHT22;25309;48.686;9.170;2022-07-29T07:25:05;21.10;99.90
39621;DHT22;25309;48.686;9.170;2022-07-29T07:27:33;21.20;99.90
39621;DHT22;25309;48.686;9.170;2022-07-29T07:30:02;21.30;99.90
39621;DHT22;25309;48.686;9.170;2022-07-29T07:32:29;21.30;99.90
39621;DHT22;25309;48.686;9.170;2022-07-29T07:34:56;21.40;99.90
39621;DHT22;25309;48.686;9.170;2022-07-29T07:37:25;21.40;99.90
39621;DHT22;25309;48.686;9.170;2022-07-29T07:39:52;21.40;99.90
39621;DHT22;25309;48.686;9.170;2022-07-29T07:42:19;21.40;99.90
39621;DHT22;25309;48.686;9.170;2022-07-29T07:44:46;21.40;99.90
39621;DHT22;25309;48.686;9.170;2022-07-29T07:47:36;21.50;99.90
39621;DHT22;25309;48.686;9.170;2022-07-29T07:50:05;21.70;99.90
39621;DHT22;25309;48.686;9.170;2022-07-29T07:52:33;21.80;99.90
39621;DHT22;25309;48.686;9.170;2022-07-29T07:55:00;22.00;99.90
39621;DHT22;25309;48.686;9.170;2022-07-29T07:57:27;22.10;99.90
39621;DHT22;25309;48.686;9.170;2022-07-29T07:59:54;22.20;99.90
39621;DHT22;25309;48.686;9.170;2022-07-29T08:02:21;22.30;99.90
39621;DHT22;25309;48.686;9.170;2022-07-29T08:04:50;22.30;99.90
39621;DHT22;25309;48.686;9.170;2022-07-29T08:07:17;22.30;99.90
39621;DHT22;25309;48.686;9.170;2022-07-29T08:09:44;22.40;99.90
39621;DHT22;25309;48.686;9.170;2022-07-29T08:12:11;22.50;99.90
39621;DHT22;25309;48.686;9.170;2022-07-29T08:14:38;22.60;99.90
39621;DHT22;25309;48.686;9.170;2022-07-29T08:17:04;22.70;99.90
39621;DHT22;25309;48.686;9.170;2022-07-29T08:19:32;22.80;99.90
39621;DHT22;25309;48.686;9.170;2022-07-29T08:22:00;23.00;99.90
39621;DHT22;25309;48.686;9.170;2022-07-29T08:24:27;23.00;99.90
39621;DHT22;25309;48.686;9.170;2022-07-29T08:27:10;23.10;99.90
39621;DHT22;25309;48.686;9.170;2022-07-29T08:29:57;23.30;99.90
39621;DHT22;25309;48.686;9.170;2022-07-29T08:32:24;23.50;99.90
39621;DHT22;25309;48.686;9.170;2022-07-29T08:35:11;23.60;99.90
39621;DHT22;25309;48.686;9.170;2022-07-29T08:37:39;23.70;99.90
39621;DHT22;25309;48.686;9.170;2022-07-29T08:40:07;23.70;99.90
39621;DHT22;25309;48.686;9.170;2022-07-29T08:42:34;23.70;99.90
39621;DHT22;25309;48.686;9.170;2022-07-29T08:45:02;23.80;99.90
39621;DHT22;25309;48.686;9.170;2022-07-29T08:47:29;23.80;99.90
39621;DHT22;25309;48.686;9.170;2022-07-29T08:49:56;23.90;99.90
39621;DHT22;25309;48.686;9.170;2022-07-29T08:52:25;23.90;99.90
39621;DHT22;25309;48.686;9.170;2022-07-29T08:54:53;24.00;99.90
39621;DHT22;25309;48.686;9.170;2022-07-29T08:57:22;24.10;99.90
39621;DHT22;25309;48.686;9.170;2022-07-29T08:59:50;24.20;99.90
39621;DHT22;25309;48.686;9.170;2022-07-29T09:02:20;24.20;99.90
39621;DHT22;25309;48.686;9.170;2022-07-29T09:04:48;24.40;99.90
39621;DHT22;25309;48.686;9.170;2022-07-29T09:07:17;24.60;99.90
39621;DHT22;25309;48.686;9.170;2022-07-29T09:09:44;24.70;99.90
39621;DHT22;25309;48.686;9.170;2022-07-29T09:12:13;24.90;99.90
39621;DHT22;25309;48.686;9.170;2022-07-29T09:14:54;25.10;99.90
39621;DHT22;25309;48.686;9.170;2022-07-29T09:17:39;25.20;99.90
39621;DHT22;25309;48.686;9.170;2022-07-29T09:20:09;25.30;99.90
39621;DHT22;25309;48.686;9.170;2022-07-29T09:22:36;25.40;99.90
39621;DHT22;25309;48.686;9.170;2022-07-29T09:25:08;25.50;99.90
39621;DHT22;25309;48.686;9.170;2022-07-29T09:27:36;25.60;99.90
39621;DHT22;25309;48.686;9.170;2022-07-29T09:30:05;25.70;99.90
39621;DHT22;25309;48.686;9.170;2022-07-29T09:32:33;25.80;99.90
39621;DHT22;25309;48.686;9.170;2022-07-29T09:35:20;26.20;99.90
39621;DHT22;25309;48.686;9.170;2022-07-29T09:37:48;26.40;99.90
39621;DHT22;25309;48.686;9.170;2022-07-29T09:40:16;26.60;99.90
39621;DHT22;25309;48.686;9.170;2022-07-29T09:42:45;26.70;99.90
39621;DHT22;25309;48.686;9.170;2022-07-29T09:45:13;26.90;99.90
39621;DHT22;25309;48.686;9.170;2022-07-29T09:47:52;27.10;99.90
39621;DHT22;25309;48.686;9.170;2022-07-29T09:50:20;27.10;99.90
39621;DHT22;25309;48.686;9.170;2022-07-29T09:52:53;27.10;99.90
39621;DHT22;25309;48.686;9.170;2022-07-29T09:55:20;27.30;99.90
39621;DHT22;25309;48.686;9.170;2022-07-29T09:57:49;27.40;99.90
39621;DHT22;25309;48.686;9.170;2022-07-29T10:00:18;27.60;99.90
39621;DHT22;25309;48.686;9.170;2022-07-29T10:02:47;27.70;99.90
39621;DHT22;25309;48.686;9.170;2022-07-29T10:05:20;27.90;99.90
39621;DHT22;25309;48.686;9.170;2022-07-29T10:07:49;28.10;99.90
39621;DHT22;25309;48.686;9.170;2022-07-29T10:10:21;28.70;99.50
39621;DHT22;25309;48.686;9.170;2022-07-29T10:12:52;29.30;97.40
39621;DHT22;25309;48.686;9.170;2022-07-29T10:15:22;29.50;95.10
39621;DHT22;25309;48.686;9.170;2022-07-29T10:17:49;29.40;96.20
39621;DHT22;25309;48.686;9.170;2022-07-29T10:20:17;29.80;95.70
39621;DHT22;25309;48.686;9.170;2022-07-29T10:22:44;30.30;94.80
39621;DHT22;25309;48.686;9.170;2022-07-29T10:25:20;30.90;93.90
39621;DHT22;25309;48.686;9.170;2022-07-29T10:27:50;31.40;92.20
39621;DHT22;25309;48.686;9.170;2022-07-29T10:30:22;31.90;92.00
39621;DHT22;25309;48.686;9.170;2022-07-29T10:33:10;32.10;91.30
39621;DHT22;25309;48.686;9.170;2022-07-29T10:35:47;32.00;90.70
39621;DHT22;25309;48.686;9.170;2022-07-29T10:38:45;32.00;89.80
39621;DHT22;25309;48.686;9.170;2022-07-29T10:44:18;31.60;87.40
39621;DHT22;25309;48.686;9.170;2022-07-29T10:46:50;31.30;86.90
39621;DHT22;25309;48.686;9.170;2022-07-29T10:49:18;31.00;88.10
39621;DHT22;25309;48.686;9.170;2022-07-29T10:52:08;30.80;89.00
39621;DHT22;25309;48.686;9.170;2022-07-29T10:54:41;30.60;89.20
39621;DHT22;25309;48.686;9.170;2022-07-29T10:57:24;30.20;90.30
39621;DHT22;25309;48.686;9.170;2022-07-29T11:00:29;29.80;89.60
39621;DHT22;25309;48.686;9.170;2022-07-29T11:02:57;29.40;89.70
39621;DHT22;25309;48.686;9.170;2022-07-29T11:05:25;29.10;90.70
39621;DHT22;25309;48.686;9.170;2022-07-29T11:08:20;28.70;90.90
39621;DHT22;25309;48.686;9.170;2022-07-29T11:14:04;27.80;92.70
39621;DHT22;25309;48.686;9.170;2022-07-29T11:17:00;27.50;94.70
39621;DHT22;25309;48.686;9.170;2022-07-29T11:19:33;27.20;96.20
39621;DHT22;25309;48.686;9.170;2022-07-29T11:22:01;26.90;98.80
39621;DHT22;25309;48.686;9.170;2022-07-29T11:24:30;26.70;99.90
39621;DHT22;25309;48.686;9.170;2022-07-29T11:27:15;26.60;99.90
39621;DHT22;25309;48.686;9.170;2022-07-29T11:29:52;26.40;99.90
39621;DHT22;25309;48.686;9.170;2022-07-29T11:32:20;26.20;99.90
39621;DHT22;25309;48.686;9.170;2022-07-29T11:35:10;26.00;99.90
39621;DHT22;25309;48.686;9.170;2022-07-29T11:37:44;26.00;99.90
39621;DHT22;25309;48.686;9.170;2022-07-29T11:40:21;25.90;99.90
39621;DHT22;25309;48.686;9.170;2022-07-29T11:42:49;25.70;99.90
39621;DHT22;25309;48.686;9.170;2022-07-29T11:45:24;25.60;99.90
39621;DHT22;25309;48.686;9.170;2022-07-29T11:48:20;25.40;99.90
39621;DHT22;25309;48.686;9.170;2022-07-29T11:50:57;25.20;99.90
39621;DHT22;25309;48.686;9.170;2022-07-29T11:53:24;25.00;99.90
39621;DHT22;25309;48.686;9.170;2022-07-29T11:55:59;24.90;99.90
39621;DHT22;25309;48.686;9.170;2022-07-29T11:58:27;24.70;99.90
39621;DHT22;25309;48.686;9.170;2022-07-29T12:00:56;24.40;99.90
39621;DHT22;25309;48.686;9.170;2022-07-29T12:03:29;24.20;99.90
39621;DHT22;25309;48.686;9.170;2022-07-29T12:06:03;24.00;99.90
39621;DHT22;25309;48.686;9.170;2022-07-29T12:08:39;24.00;99.90
39621;DHT22;25309;48.686;9.170;2022-07-29T12:11:15;23.90;99.90
39621;DHT22;25309;48.686;9.170;2022-07-29T12:13:42;23.70;99.90
39621;DHT22;25309;48.686;9.170;2022-07-29T12:16:12;23.40;99.90
39621;DHT22;25309;48.686;9.170;2022-07-29T12:18:40;23.20;99.90
39621;DHT22;25309;48.686;9.170;2022-07-29T12:21:07;22.90;99.90
39621;DHT22;25309;48.686;9.170;2022-07-29T12:23:38;22.80;99.90
39621;DHT22;25309;48.686;9.170;2022-07-29T12:26:05;22.70;99.90
39621;DHT22;25309;48.686;9.170;2022-07-29T12:28:48;22.50;99.90
39621;DHT22;25309;48.686;9.170;2022-07-29T12:31:16;22.40;99.90
39621;DHT22;25309;48.686;9.170;2022-07-29T12:34:03;22.40;99.90
39621;DHT22;25309;48.686;9.170;2022-07-29T12:36:30;22.30;99.90
39621;DHT22;25309;48.686;9.170;2022-07-29T12:38:58;22.20;99.90
39621;DHT22;25309;48.686;9.170;2022-07-29T12:41:25;22.20;99.90
39621;DHT22;25309;48.686;9.170;2022-07-29T12:43:54;22.20;99.90
39621;DHT22;25309;48.686;9.170;2022-07-29T12:46:22;22.20;99.90
39621;DHT22;25309;48.686;9.170;2022-07-29T12:48:51;22.20;99.90
39621;DHT22;25309;48.686;9.170;2022-07-29T12:51:28;22.20;99.90
39621;DHT22;25309;48.686;9.170;2022-07-29T12:54:07;22.20;99.90
39621;DHT22;25309;48.686;9.170;2022-07-29T12:56:35;22.20;99.90
39621;DHT22;25309;48.686;9.170;2022-07-29T12:59:15;22.20;99.90
39621;DHT22;25309;48.686;9.170;2022-07-29T13:01:43;22.20;99.90
39621;DHT22;25309;48.686;9.170;2022-07-29T13:04:11;22.20;99.90
39621;DHT22;25309;48.686;9.170;2022-07-29T13:06:58;22.10;99.90
39621;DHT22;25309;48.686;9.170;2022-07-29T13:09:36;22.10;99.90
39621;DHT22;25309;48.686;9.170;2022-07-29T13:12:06;22.20;99.90
39621;DHT22;25309;48.686;9.170;2022-07-29T13:14:35;22.20;99.90
39621;DHT22;25309;48.686;9.170;2022-07-29T13:17:06;22.00;99.90
39621;DHT22;25309;48.686;9.170;2022-07-29T13:19:36;20.20;99.90
39621;DHT22;25309;48.686;9.170;2022-07-29T13:22:04;19.70;99.90
39621;DHT22;25309;48.686;9.170;2022-07-29T13:24:31;19.20;99.90
39621;DHT22;25309;48.686;9.170;2022-07-29T13:26:58;18.90;99.90
39621;DHT22;25309;48.686;9.170;2022-07-29T13:29:24;18.90;99.90
39621;DHT22;25309;48.686;9.170;2022-07-29T13:31:57;18.90;99.90
39621;DHT22;25309;48.686;9.170;2022-07-29T13:34:26;19.10;99.90
39621;DHT22;25309;48.686;9.170;2022-07-29T13:36:53;19.10;99.90
39621;DHT22;25309;48.686;9.170;2022-07-29T13:39:20;19.20;99.90
39621;DHT22;25309;48.686;9.170;2022-07-29T13:41:47;19.20;99.90
39621;DHT22;25309;48.686;9.170;2022-07-29T13:44:14;19.30;99.90
39621;DHT22;25309;48.686;9.170;2022-07-29T13:46:41;19.30;99.90
39621;DHT22;25309;48.686;9.170;2022-07-29T13:49:08;19.50;99.90
39621;DHT22;25309;48.686;9.170;2022-07-29T13:51:37;19.60;99.90
39621;DHT22;25309;48.686;9.170;2022-07-29T13:54:04;19.90;99.90
39621;DHT22;25309;48.686;9.170;2022-07-29T13:56:31;20.10;99.90
39621;DHT22;25309;48.686;9.170;2022-07-29T13:58:58;20.10;99.90
39621;DHT22;25309;48.686;9.170;2022-07-29T14:01:25;20.20;99.90
39621;DHT22;25309;48.686;9.170;2022-07-29T14:03:53;20.30;99.90
39621;DHT22;25309;48.686;9.170;2022-07-29T14:06:21;20.30;99.90
39621;DHT22;25309;48.686;9.170;2022-07-29T14:08:50;20.20;99.90
39621;DHT22;25309;48.686;9.170;2022-07-29T14:11:17;20.20;99.90
39621;DHT22;25309;48.686;9.170;2022-07-29T14:13:44;20.30;99.90
39621;DHT22;25309;48.686;9.170;2022-07-29T14:16:11;20.30;99.90
39621;DHT22;25309;48.686;9.170;2022-07-29T14:18:38;20.40;99.90
39621;DHT22;25309;48.686;9.170;2022-07-29T14:21:05;20.50;99.90
39621;DHT22;25309;48.686;9.170;2022-07-29T14:23:32;20.50;99.90
39621;DHT22;25309;48.686;9.170;2022-07-29T14:26:00;20.60;99.90
39621;DHT22;25309;48.686;9.170;2022-07-29T14:28:28;20.60;99.90
39621;DHT22;25309;48.686;9.170;2022-07-29T14:30:55;20.70;99.90
39621;DHT22;25309;48.686;9.170;2022-07-29T14:33:22;20.90;99.90
39621;DHT22;25309;48.686;9.170;2022-07-29T14:35:49;20.90;99.90
39621;DHT22;25309;48.686;9.170;2022-07-29T14:38:16;20.80;99.90
39621;DHT22;25309;48.686;9.170;2022-07-29T14:40:43;20.90;99.90
39621;DHT22;25309;48.686;9.170;2022-07-29T14:43:11;21.00;99.90
39621;DHT22;25309;48.686;9.170;2022-07-29T14:45:38;21.00;99.90
39621;DHT22;25309;48.686;9.170;2022-07-29T14:48:06;21.20;99.90
39621;DHT22;25309;48.686;9.170;2022-07-29T14:50:33;21.10;99.90
39621;DHT22;25309;48.686;9.170;2022-07-29T14:53:00;21.20;99.90
39621;DHT22;25309;48.686;9.170;2022-07-29T14:55:27;21.10;99.90
39621;DHT22;25309;48.686;9.170;2022-07-29T14:57:55;21.20;99.90
39621;DHT22;25309;48.686;9.170;2022-07-29T15:00:36;21.10;99.90
39621;DHT22;25309;48.686;9.170;2022-07-29T15:03:04;20.90;99.90
39621;DHT22;25309;48.686;9.170;2022-07-29T15:05:32;20.90;99.90
39621;DHT22;25309;48.686;9.170;2022-07-29T15:07:59;20.80;99.90
39621;DHT22;25309;48.686;9.170;2022-07-29T15:10:26;20.40;99.90
39621;DHT22;25309;48.686;9.170;2022-07-29T15:12:54;20.40;99.90
39621;DHT22;25309;48.686;9.170;2022-07-29T15:15:21;20.30;99.90
39621;DHT22;25309;48.686;9.170;2022-07-29T15:17:50;20.40;99.90
39621;DHT22;25309;48.686;9.170;2022-07-29T15:20:16;20.50;99.90
39621;DHT22;25309;48.686;9.170;2022-07-29T15:22:43;20.40;99.90
39621;DHT22;25309;48.686;9.170;2022-07-29T15:25:10;20.50;99.90
39621;DHT22;25309;48.686;9.170;2022-07-29T15:27:37;20.50;99.90
39621;DHT22;25309;48.686;9.170;2022-07-29T15:30:05;20.70;99.90
39621;DHT22;25309;48.686;9.170;2022-07-29T15:32:32;20.70;99.90
39621;DHT22;25309;48.686;9.170;2022-07-29T15:35:00;20.80;99.90
39621;DHT22;25309;48.686;9.170;2022-07-29T15:37:27;20.90;99.90
39621;DHT22;25309;48.686;9.170;2022-07-29T15:40:15;20.90;99.90
39621;DHT22;25309;48.686;9.170;2022-07-29T15:42:42;21.00;99.90
39621;DHT22;25309;48.686;9.170;2022-07-29T15:45:09;21.10;99.90
39621;DHT22;25309;48.686;9.170;2022-07-29T15:47:36;21.30;99.90
39621;DHT22;25309;48.686;9.170;2022-07-29T15:50:05;21.30;99.90
39621;DHT22;25309;48.686;9.170;2022-07-29T15:52:33;21.40;99.90
39621;DHT22;25309;48.686;9.170;2022-07-29T15:55:00;21.40;99.90
39621;DHT22;25309;48.686;9.170;2022-07-29T15:57:26;21.30;99.90
39621;DHT22;25309;48.686;9.170;2022-07-29T15:59:53;21.30;99.90